Time;durP1;ratioP1;P1;durP2;ratioP2;P2;SDS_P1;SDS_P2;PMS_P1;PMS_P2;Temp;Humidity;BMP_temperature;BMP_pressure;BME280_temperature;BME280_humidity;BME280_pressure;Samples;Min_cycle;Max_cycle;Signal;HPM_P1;HPM_P2
2024/02/28 00:01:39;;;;;;;11.57;5.65;;;;;;;;;;7407817;19;20478;-78
2024/02/28 00:04:23;;;;;;;12.10;6.75;;;;;;;;;;7405414;19;19986;-78
2024/02/28 00:07:13;;;;;;;12.63;5.43;;;;;;;;;;7402873;19;20344;-78
2024/02/28 00:10:02;;;;;;;15.57;5.38;;;;;;;;;;7406422;19;19922;-78
2024/02/28 00:12:46;;;;;;;13.30;6.03;;;;;;;;;;7408816;19;19922;-78
2024/02/28 00:15:30;;;;;;;11.43;5.47;;;;;;;;;;7398358;19;19926;-78
2024/02/28 00:18:17;;;;;;;11.38;5.45;;;;;;;;;;7406705;19;19919;-78
2024/02/28 00:21:03;;;;;;;13.25;6.30;;;;;;;;;;7401933;19;19918;-78
2024/02/28 00:23:53;;;;;;;13.35;6.57;;;;;;;;;;7403687;19;19942;-78
2024/02/28 00:26:42;;;;;;;10.68;5.53;;;;;;;;;;7407986;19;19933;-78
2024/02/28 00:29:29;;;;;;;15.13;6.75;;;;;;;;;;7402630;19;19922;-78
2024/02/28 00:32:16;;;;;;;14.50;6.45;;;;;;;;;;7406577;19;20328;-78
2024/02/28 00:35:06;;;;;;;16.10;6.40;;;;;;;;;;7404916;19;19914;-78
2024/02/28 00:37:53;;;;;;;18.92;7.03;;;;;;;;;;7403934;19;19978;-78
2024/02/28 00:40:39;;;;;;;;;;;;;;;;;;7409326;19;19937;-78
2024/02/28 00:43:26;;;;;;;12.32;4.97;;;;;;;;;;7406812;19;19970;-78
2024/02/28 00:46:13;;;;;;;11.88;5.85;;;;;;;;;;7402514;19;19978;-78
2024/02/28 00:48:59;;;;;;;12.48;6.70;;;;;;;;;;7409207;19;19918;-78
2024/02/28 00:51:43;;;;;;;15.20;6.82;;;;;;;;;;7406085;19;19915;-78
2024/02/28 00:54:30;;;;;;;13.50;6.38;;;;;;;;;;7407511;19;19902;-78
2024/02/28 00:57:19;;;;;;;14.38;6.00;;;;;;;;;;7404859;19;19918;-77
2024/02/28 01:00:05;;;;;;;11.95;5.80;;;;;;;;;;7402079;19;19923;-78
2024/02/28 01:02:54;;;;;;;12.52;5.47;;;;;;;;;;7406420;19;19915;-78
2024/02/28 01:05:40;;;;;;;14.35;6.25;;;;;;;;;;7405716;19;20326;-77
2024/02/28 01:08:24;;;;;;;;;;;;;;;;;;7406461;19;19915;-77
2024/02/28 01:11:08;;;;;;;17.58;5.97;;;;;;;;;;7406217;19;19922;-77
2024/02/28 01:14:00;;;;;;;10.95;5.60;;;;;;;;;;7407380;19;20250;-77
2024/02/28 01:16:46;;;;;;;12.70;5.05;;;;;;;;;;7401702;19;19922;-77
2024/02/28 01:19:31;;;;;;;11.35;5.00;;;;;;;;;;7406823;19;19914;-78
2024/02/28 01:22:17;;;;;;;13.15;5.15;;;;;;;;;;7404743;19;19914;-78
2024/02/28 01:25:02;;;;;;;16.60;6.45;;;;;;;;;;7404822;19;19915;-78
2024/02/28 01:27:47;;;;;;;11.43;5.60;;;;;;;;;;7404275;19;19922;-78
2024/02/28 01:30:34;;;;;;;13.35;5.45;;;;;;;;;;7401627;19;19919;-78
2024/02/28 01:33:18;;;;;;;12.73;6.07;;;;;;;;;;7405311;19;19923;-78
2024/02/28 01:36:07;;;;;;;10.88;5.20;;;;;;;;;;7402948;19;19919;-78
2024/02/28 01:38:54;;;;;;;13.20;6.13;;;;;;;;;;7406821;19;19919;-78
2024/02/28 01:41:38;;;;;;;13.90;5.28;;;;;;;;;;7405047;19;20399;-78
2024/02/28 01:44:25;;;;;;;13.02;5.20;;;;;;;;;;7405751;19;19919;-78
2024/02/28 01:47:12;;;;;;;13.02;5.65;;;;;;;;;;7402573;19;19970;-78
2024/02/28 01:50:01;;;;;;;10.85;5.80;;;;;;;;;;7408036;19;19926;-78
2024/02/28 01:52:47;;;;;;;14.23;6.25;;;;;;;;;;7406071;19;19982;-78
2024/02/28 01:55:34;;;;;;;13.27;5.88;;;;;;;;;;7404506;19;19915;-78
2024/02/28 01:58:21;;;;;;;13.95;5.68;;;;;;;;;;7404074;19;19934;-78
2024/02/28 02:01:07;;;;;;;13.10;5.85;;;;;;;;;;7404922;19;19926;-78
2024/02/28 02:03:53;;;;;;;12.60;5.65;;;;;;;;;;7404059;19;20406;-78
2024/02/28 02:06:44;;;;;;;15.20;5.75;;;;;;;;;;7403337;19;19926;-78
2024/02/28 02:09:31;;;;;;;11.43;4.85;;;;;;;;;;7403273;19;19922;-78
2024/02/28 02:12:18;;;;;;;11.45;6.07;;;;;;;;;;7405765;19;20252;-78
2024/02/28 02:15:02;;;;;;;15.38;5.65;;;;;;;;;;7405459;19;19918;-77
2024/02/28 02:17:49;;;;;;;11.65;5.22;;;;;;;;;;7403355;19;19911;-78
2024/02/28 02:20:47;;;;;;;12.35;6.45;;;;;;;;;;7401359;19;19922;-78
2024/02/28 02:23:39;;;;;;;15.30;5.82;;;;;;;;;;7406342;19;19918;-77
2024/02/28 02:26:26;;;;;;;14.10;5.43;;;;;;;;;;7400013;19;19915;-77
2024/02/28 02:29:12;;;;;;;12.38;6.30;;;;;;;;;;7406015;19;20341;-77
2024/02/28 02:31:56;;;;;;;;;;;;;;;;;;7405953;19;19914;-78
2024/02/28 02:34:40;;;;;;;15.35;6.15;;;;;;;;;;7401560;19;19930;-78
2024/02/28 02:37:27;;;;;;;11.52;5.47;;;;;;;;;;7402787;19;20257;-78
2024/02/28 02:40:18;;;;;;;14.90;6.18;;;;;;;;;;7406705;19;19937;-78
2024/02/28 02:43:05;;;;;;;15.32;6.07;;;;;;;;;;7402280;19;19978;-78
2024/02/28 02:45:50;;;;;;;13.55;5.65;;;;;;;;;;7402341;19;19950;-78
2024/02/28 02:48:39;;;;;;;11.32;5.28;;;;;;;;;;7404194;19;19918;-78
2024/02/28 02:51:23;;;;;;;;;;;;;;;;;;7406317;19;19937;-78
2024/02/28 02:54:10;;;;;;;13.18;5.63;;;;;;;;;;7401116;19;19906;-78
2024/02/28 02:56:59;;;;;;;14.40;6.13;;;;;;;;;;7404777;19;19929;-78
2024/02/28 02:59:48;;;;;;;16.63;5.65;;;;;;;;;;7404004;19;19918;-78
2024/02/28 03:02:34;;;;;;;14.43;5.82;;;;;;;;;;7406066;19;19911;-78
2024/02/28 03:05:18;;;;;;;;;;;;;;;;;;7404633;19;19919;-78
2024/02/28 03:08:02;;;;;;;13.05;6.10;;;;;;;;;;7402063;19;19914;-78
2024/02/28 03:10:49;;;;;;;8.50;4.13;;;;;;;;;;7404359;19;19923;-78
2024/02/28 03:13:36;;;;;;;;;;;;;;;;;;7405446;19;20264;-78
2024/02/28 03:16:23;;;;;;;11.55;5.25;;;;;;;;;;7398603;19;19918;-78
2024/02/28 03:19:07;;;;;;;12.25;5.75;;;;;;;;;;7399888;19;19982;-78
2024/02/28 03:21:51;;;;;;;;;;;;;;;;;;7403944;19;20333;-78
2024/02/28 03:24:37;;;;;;;10.50;4.97;;;;;;;;;;7402536;19;19914;-78
2024/02/28 03:27:21;;;;;;;;;;;;;;;;;;7399276;19;19914;-77
2024/02/28 03:30:09;;;;;;;8.57;4.47;;;;;;;;;;7395299;19;19922;-77
2024/02/28 03:32:54;;;;;;;9.57;4.43;;;;;;;;;;7399342;19;19918;-77
2024/02/28 03:35:38;;;;;;;10.07;5.47;;;;;;;;;;7397377;19;20273;-77
2024/02/28 03:38:22;;;;;;;;;;;;;;;;;;7404925;19;19915;-77
2024/02/28 03:41:09;;;;;;;9.82;4.10;;;;;;;;;;7405937;19;19919;-77
2024/02/28 03:43:55;;;;;;;10.32;4.65;;;;;;;;;;7410708;19;19911;-77
2024/02/28 03:46:45;;;;;;;13.32;5.00;;;;;;;;;;7405489;19;19919;-78
2024/02/28 03:49:29;;;;;;;14.35;5.65;;;;;;;;;;7410170;19;20264;-78
2024/02/28 03:52:13;;;;;;;;;;;;;;;;;;7410773;19;19943;-78
2024/02/28 03:55:00;;;;;;;11.10;4.68;;;;;;;;;;7414663;19;19918;-78
2024/02/28 03:57:51;;;;;;;10.00;4.55;;;;;;;;;;7406660;19;19923;-78
2024/02/28 04:00:35;;;;;;;11.18;5.15;;;;;;;;;;7408244;19;19936;-78
2024/02/28 04:03:24;;;;;;;10.80;5.13;;;;;;;;;;7408567;19;20500;-79
2024/02/28 04:06:14;;;;;;;14.50;5.90;;;;;;;;;;7411779;19;19923;-79
2024/02/28 04:08:58;;;;;;;12.60;6.05;;;;;;;;;;7414248;19;19919;-79
2024/02/28 04:11:45;;;;;;;16.20;6.93;;;;;;;;;;7416299;19;19922;-79
2024/02/28 04:14:32;;;;;;;12.32;6.70;;;;;;;;;;7414348;19;19911;-79
2024/02/28 04:17:21;;;;;;;12.10;5.38;;;;;;;;;;7411196;19;19919;-79
2024/02/28 04:20:10;;;;;;;;;;;;;;;;;;7416834;19;19926;-79
2024/02/28 04:22:54;;;;;;;11.90;4.97;;;;;;;;;;7410964;19;19911;-79
2024/02/28 04:25:43;;;;;;;9.90;4.90;;;;;;;;;;7417209;19;19919;-79
2024/02/28 04:28:28;;;;;;;11.35;4.82;;;;;;;;;;7411166;19;19911;-79
2024/02/28 04:31:14;;;;;;;13.75;6.20;;;;;;;;;;7413131;19;19914;-80
2024/02/28 04:34:03;;;;;;;11.63;5.55;;;;;;;;;;7415286;19;19922;-79
2024/02/28 04:36:52;;;;;;;11.73;5.68;;;;;;;;;;7415470;19;19950;-79
2024/02/28 04:39:37;;;;;;;13.38;5.32;;;;;;;;;;7409538;19;20269;-79
2024/02/28 04:42:23;;;;;;;13.18;5.72;;;;;;;;;;7415882;19;19919;-80
2024/02/28 04:45:08;;;;;;;;;;;;;;;;;;7419574;19;19956;-80
2024/02/28 04:47:56;;;;;;;10.10;4.72;;;;;;;;;;7415263;19;19919;-79
2024/02/28 04:50:41;;;;;;;14.45;6.38;;;;;;;;;;7417945;19;19922;-79
2024/02/28 04:53:30;;;;;;;9.50;4.80;;;;;;;;;;7416625;19;19936;-79
2024/02/28 04:56:16;;;;;;;14.27;5.38;;;;;;;;;;7416980;19;19926;-80
2024/02/28 04:59:03;;;;;;;13.60;6.68;;;;;;;;;;7411650;19;19923;-79
2024/02/28 05:01:50;;;;;;;10.07;5.15;;;;;;;;;;7406973;19;19930;-79
2024/02/28 05:04:39;;;;;;;15.90;6.07;;;;;;;;;;7411057;19;19911;-78
2024/02/28 05:07:23;;;;;;;12.15;6.07;;;;;;;;;;7411918;19;19936;-79
2024/02/28 05:10:13;;;;;;;12.25;5.55;;;;;;;;;;7410746;19;19925;-79
2024/02/28 05:12:59;;;;;;;14.07;5.65;;;;;;;;;;7409504;19;19911;-78
2024/02/28 05:15:46;;;;;;;12.38;5.10;;;;;;;;;;7413618;19;20428;-79
2024/02/28 05:18:35;;;;;;;13.10;6.43;;;;;;;;;;7414856;19;19921;-79
2024/02/28 05:21:22;;;;;;;13.20;6.07;;;;;;;;;;7409615;19;19915;-78
2024/02/28 05:24:08;;;;;;;18.35;7.15;;;;;;;;;;7414874;19;19915;-80
2024/02/28 05:26:57;;;;;;;14.27;6.15;;;;;;;;;;7411697;19;20566;-79
2024/02/28 05:29:44;;;;;;;14.10;6.70;;;;;;;;;;7412997;19;19914;-79
2024/02/28 05:32:31;;;;;;;11.80;5.63;;;;;;;;;;7402866;19;20854;-79
2024/02/28 05:35:15;;;;;;;;;;;;;;;;;;7416800;19;19911;-80
2024/02/28 05:37:59;;;;;;;9.95;4.82;;;;;;;;;;7408113;19;19963;-79
2024/02/28 05:40:43;;;;;;;;;;;;;;;;;;7414841;19;20265;-79
2024/02/28 05:43:33;;;;;;;10.48;4.28;;;;;;;;;;7410726;19;19911;-78
2024/02/28 05:46:22;;;;;;;16.38;5.65;;;;;;;;;;7405130;19;19926;-78
2024/02/28 05:49:07;;;;;;;11.50;4.78;;;;;;;;;;7406973;19;19936;-78
2024/02/28 05:51:54;;;;;;;10.27;4.90;;;;;;;;;;7406358;19;19926;-79
2024/02/28 05:54:40;;;;;;;12.98;6.03;;;;;;;;;;7406405;19;19914;-79
2024/02/28 05:57:27;;;;;;;11.27;6.25;;;;;;;;;;7406877;19;19930;-79
2024/02/28 06:00:14;;;;;;;;;;;;;;;;;;7409665;19;19953;-79
2024/02/28 06:03:01;;;;;;;12.57;5.60;;;;;;;;;;7403612;19;19918;-80
2024/02/28 06:05:48;;;;;;;14.73;5.65;;;;;;;;;;7406669;19;20341;-79
2024/02/28 06:08:33;;;;;;;15.15;6.22;;;;;;;;;;7410465;19;20273;-79
2024/02/28 06:11:18;;;;;;;11.55;5.78;;;;;;;;;;7411334;19;19925;-79
2024/02/28 06:14:07;;;;;;;15.13;6.10;;;;;;;;;;7411124;19;19926;-79
2024/02/28 06:16:58;;;;;;;15.00;6.28;;;;;;;;;;7410403;19;19919;-79
2024/02/28 06:19:43;;;;;;;11.55;5.43;;;;;;;;;;7409003;19;19923;-79
2024/02/28 06:22:29;;;;;;;15.40;5.90;;;;;;;;;;7406487;19;20264;-79
2024/02/28 06:25:22;;;;;;;12.80;6.75;;;;;;;;;;7407736;19;20360;-79
2024/02/28 06:28:07;;;;;;;15.68;6.50;;;;;;;;;;7409223;19;19907;-80
2024/02/28 06:30:56;;;;;;;16.30;6.70;;;;;;;;;;7410844;19;19907;-80
2024/02/28 06:33:43;;;;;;;;;;;;;;;;;;7412987;19;19940;-79
2024/02/28 06:36:29;;;;;;;14.48;6.32;;;;;;;;;;7411516;19;19919;-79
2024/02/28 06:39:16;;;;;;;17.65;7.47;;;;;;;;;;7410422;19;20277;-79
2024/02/28 06:42:03;;;;;;;20.10;7.90;;;;;;;;;;7412296;19;19915;-80
2024/02/28 06:44:50;;;;;;;14.27;7.15;;;;;;;;;;7412842;19;19918;-79
2024/02/28 06:47:37;;;;;;;17.58;7.32;;;;;;;;;;7409630;19;19915;-79
2024/02/28 06:50:26;;;;;;;23.50;7.50;;;;;;;;;;7408668;19;19914;-79
2024/02/28 06:53:12;;;;;;;15.57;7.05;;;;;;;;;;7411353;19;19917;-79
2024/02/28 06:55:57;;;;;;;16.45;6.72;;;;;;;;;;7409271;19;20288;-79
2024/02/28 06:58:41;;;;;;;17.73;7.82;;;;;;;;;;7412132;19;20349;-80
2024/02/28 07:01:25;;;;;;;20.75;8.15;;;;;;;;;;7409700;19;20024;-80
2024/02/28 07:04:11;;;;;;;20.17;7.05;;;;;;;;;;7412635;19;19915;-79
2024/02/28 07:07:03;;;;;;;22.02;7.75;;;;;;;;;;7410425;19;19919;-79
2024/02/28 07:09:52;;;;;;;16.75;7.35;;;;;;;;;;7412173;19;19925;-79
2024/02/28 07:12:36;;;;;;;15.30;7.28;;;;;;;;;;7406895;19;20359;-79
2024/02/28 07:15:21;;;;;;;20.13;8.13;;;;;;;;;;7413859;19;19926;-79
2024/02/28 07:18:08;;;;;;;19.02;8.48;;;;;;;;;;7415839;19;19926;-79
2024/02/28 07:20:52;;;;;;;19.10;7.97;;;;;;;;;;7416513;19;20262;-78
2024/02/28 07:23:44;;;;;;;21.70;8.95;;;;;;;;;;7416325;19;19915;-78
2024/02/28 07:26:28;;;;;;;25.52;9.05;;;;;;;;;;7413097;19;19915;-79
2024/02/28 07:29:15;;;;;;;18.27;8.30;;;;;;;;;;7413421;19;19911;-79
2024/02/28 07:31:59;;;;;;;20.52;8.45;;;;;;;;;;7415624;19;19927;-79
2024/02/28 07:34:46;;;;;;;20.75;8.93;;;;;;;;;;7413579;19;19923;-78
2024/02/28 07:37:30;;;;;;;20.48;9.23;;;;;;;;;;7411867;19;19918;-80
2024/02/28 07:40:17;;;;;;;16.42;7.40;;;;;;;;;;7410614;19;19919;-79
2024/02/28 07:43:03;;;;;;;17.90;8.30;;;;;;;;;;7414769;19;19911;-78
2024/02/28 07:45:52;;;;;;;15.10;8.13;;;;;;;;;;7411309;19;20341;-79
2024/02/28 07:48:39;;;;;;;17.17;8.15;;;;;;;;;;7412206;19;19929;-79
2024/02/28 07:51:25;;;;;;;21.98;10.20;;;;;;;;;;7411947;19;20344;-79
2024/02/28 07:54:12;;;;;;;21.15;9.85;;;;;;;;;;7406922;19;19991;-78
2024/02/28 07:56:59;;;;;;;19.65;8.20;;;;;;;;;;7409561;19;19919;-79
2024/02/28 07:59:48;;;;;;;18.58;9.20;;;;;;;;;;7411039;19;19918;-78
2024/02/28 08:02:35;;;;;;;19.35;9.00;;;;;;;;;;7414385;19;19914;-78
2024/02/28 08:05:19;;;;;;;18.30;8.23;;;;;;;;;;7414920;19;19919;-78
2024/02/28 08:08:07;;;;;;;16.17;8.63;;;;;;;;;;7410219;19;19937;-78
2024/02/28 08:10:53;;;;;;;19.00;8.40;;;;;;;;;;7408149;19;19918;-78
2024/02/28 08:13:43;;;;;;;19.35;9.38;;;;;;;;;;7410847;19;19918;-78
2024/02/28 08:16:27;;;;;;;20.05;9.02;;;;;;;;;;7411465;19;19947;-78
2024/02/28 08:19:14;;;;;;;16.13;8.77;;;;;;;;;;7411464;19;20333;-78
2024/02/28 08:21:58;;;;;;;17.00;8.93;;;;;;;;;;7409439;19;19990;-78
2024/02/28 08:24:47;;;;;;;13.50;7.80;;;;;;;;;;7411150;19;19930;-78
2024/02/28 08:27:34;;;;;;;18.27;9.00;;;;;;;;;;7406899;19;19982;-79
2024/02/28 08:30:21;;;;;;;16.90;8.50;;;;;;;;;;7408727;19;20361;-79
2024/02/28 08:33:10;;;;;;;18.58;9.35;;;;;;;;;;7409021;19;19919;-79
2024/02/28 08:35:59;;;;;;;20.90;8.77;;;;;;;;;;7408055;19;19922;-79
2024/02/28 08:38:44;;;;;;;17.88;9.32;;;;;;;;;;7410564;19;19919;-79
2024/02/28 08:41:30;;;;;;;17.67;8.63;;;;;;;;;;7411698;19;19922;-79
2024/02/28 08:44:17;;;;;;;23.13;10.27;;;;;;;;;;7413687;19;20404;-79
2024/02/28 08:47:11;;;;;;;20.00;8.95;;;;;;;;;;7411248;19;19914;-79
2024/02/28 08:49:56;;;;;;;16.70;8.65;;;;;;;;;;7413238;19;19922;-79
2024/02/28 08:52:47;;;;;;;15.98;8.93;;;;;;;;;;7409267;19;19937;-79
2024/02/28 08:55:34;;;;;;;17.77;9.00;;;;;;;;;;7410231;19;19914;-79
2024/02/28 08:58:20;;;;;;;20.83;8.80;;;;;;;;;;7409942;19;20344;-79
2024/02/28 09:01:05;;;;;;;15.98;8.50;;;;;;;;;;7411279;19;19936;-79
2024/02/28 09:03:54;;;;;;;18.05;9.07;;;;;;;;;;7411901;19;19910;-80
2024/02/28 09:06:44;;;;;;;15.20;7.60;;;;;;;;;;7411289;19;20325;-78
2024/02/28 09:09:33;;;;;;;22.23;9.15;;;;;;;;;;7411381;19;20626;-78
2024/02/28 09:12:20;;;;;;;15.50;8.32;;;;;;;;;;7409622;19;20354;-78
2024/02/28 09:15:04;;;;;;;17.63;8.32;;;;;;;;;;7410886;19;19923;-78
2024/02/28 09:17:49;;;;;;;19.23;8.30;;;;;;;;;;7410306;19;19914;-80
2024/02/28 09:20:38;;;;;;;20.38;8.82;;;;;;;;;;7411199;19;19918;-80
2024/02/28 09:23:27;;;;;;;20.20;8.95;;;;;;;;;;7410783;19;19954;-79
2024/02/28 09:26:16;;;;;;;16.85;8.18;;;;;;;;;;7411179;19;19919;-80
2024/02/28 09:29:05;;;;;;;18.65;8.23;;;;;;;;;;7411335;19;20397;-80
2024/02/28 09:31:50;;;;;;;15.80;8.25;;;;;;;;;;7410448;19;19937;-80
2024/02/28 09:34:34;;;;;;;18.33;7.53;;;;;;;;;;7411611;19;20364;-80
2024/02/28 09:37:24;;;;;;;13.60;6.85;;;;;;;;;;7408609;19;19922;-79
2024/02/28 09:40:13;;;;;;;19.15;9.05;;;;;;;;;;7409898;19;19915;-79
2024/02/28 09:43:03;;;;;;;18.17;7.63;;;;;;;;;;7411471;19;19918;-79
2024/02/28 09:45:50;;;;;;;16.63;7.25;;;;;;;;;;7413142;19;19922;-79
2024/02/28 09:48:45;;;;;;;17.77;7.88;;;;;;;;;;7413085;19;19907;-85
2024/02/28 09:51:35;;;;;;;14.95;7.57;;;;;;;;;;7418106;19;19935;-83
2024/02/28 09:54:22;;;;;;;13.77;6.90;;;;;;;;;;7417047;19;20301;-82
2024/02/28 09:57:07;;;;;;;14.60;7.20;;;;;;;;;;7417967;19;19940;-82
2024/02/28 09:59:54;;;;;;;14.48;6.22;;;;;;;;;;7418476;19;19926;-82
2024/02/28 10:02:43;;;;;;;13.15;6.75;;;;;;;;;;7416933;19;19911;-84
2024/02/28 10:05:29;;;;;;;12.43;5.95;;;;;;;;;;7419407;19;19911;-82
2024/02/28 10:08:15;;;;;;;12.23;5.65;;;;;;;;;;7417709;19;19946;-84
2024/02/28 10:11:05;;;;;;;11.68;5.40;;;;;;;;;;7441692;19;19907;-85
2024/02/28 10:13:54;;;;;;;8.15;4.35;;;;;;;;;;7431644;19;20249;-85
2024/02/28 10:16:45;;;;;;;11.32;5.20;;;;;;;;;;7415439;19;20265;-82
2024/02/28 10:19:29;;;;;;;10.02;4.75;;;;;;;;;;7415113;19;19910;-82
2024/02/28 10:22:13;;;;;;;10.68;5.60;;;;;;;;;;7414634;19;19914;-81
2024/02/28 10:25:00;;;;;;;10.05;5.20;;;;;;;;;;7418626;19;19950;-81
2024/02/28 10:27:49;;;;;;;12.43;5.22;;;;;;;;;;7417008;19;19920;-81
2024/02/28 10:30:43;;;;;;;9.15;5.20;;;;;;;;;;7418816;19;20337;-81
2024/02/28 10:33:33;;;;;;;12.60;4.65;;;;;;;;;;7418161;19;19919;-82
2024/02/28 10:36:17;;;;;;;10.57;4.95;;;;;;;;;;7419987;19;19922;-82
2024/02/28 10:39:04;;;;;;;9.60;5.32;;;;;;;;;;7416016;19;19911;-81
2024/02/28 10:41:56;;;;;;;9.63;5.15;;;;;;;;;;7414444;19;19922;-82
2024/02/28 10:44:45;;;;;;;11.02;5.13;;;;;;;;;;7416175;19;19914;-82
2024/02/28 10:47:32;;;;;;;10.07;5.38;;;;;;;;;;7415802;19;19922;-83
2024/02/28 10:50:17;;;;;;;10.15;4.80;;;;;;;;;;7419382;19;19910;-82
2024/02/28 10:53:07;;;;;;;9.40;4.88;;;;;;;;;;7424014;19;19911;-82
2024/02/28 10:55:54;;;;;;;10.63;5.05;;;;;;;;;;7426024;19;19922;-82
2024/02/28 10:58:45;;;;;;;10.80;5.85;;;;;;;;;;7424841;19;19910;-81
2024/02/28 11:01:32;;;;;;;16.60;5.80;;;;;;;;;;7423420;19;19943;-81
2024/02/28 11:04:20;;;;;;;11.35;4.95;;;;;;;;;;7424689;19;19915;-81
2024/02/28 11:07:04;;;;;;;12.85;5.47;;;;;;;;;;7424920;19;19938;-81
2024/02/28 11:09:56;;;;;;;10.68;5.28;;;;;;;;;;7425926;19;20244;-81
2024/02/28 11:12:42;;;;;;;9.32;4.88;;;;;;;;;;7426113;19;19925;-81
2024/02/28 11:15:28;;;;;;;11.43;4.88;;;;;;;;;;7423675;19;19981;-81
2024/02/28 11:18:17;;;;;;;11.70;5.50;;;;;;;;;;7423254;19;19919;-82
2024/02/28 11:21:03;;;;;;;9.77;5.32;;;;;;;;;;7422705;19;20007;-82
2024/02/28 11:23:51;;;;;;;9.52;5.68;;;;;;;;;;7425819;19;19926;-82
2024/02/28 11:26:40;;;;;;;9.68;4.95;;;;;;;;;;7424893;19;19927;-82
2024/02/28 11:29:33;;;;;;;8.25;4.80;;;;;;;;;;7426293;19;19915;-82
2024/02/28 11:32:17;;;;;;;9.32;5.50;;;;;;;;;;7424063;19;19918;-82
2024/02/28 11:35:08;;;;;;;9.70;4.70;;;;;;;;;;7424039;19;19930;-82
2024/02/28 11:37:56;;;;;;;9.65;4.95;;;;;;;;;;7423529;19;19926;-82
2024/02/28 11:40:51;;;;;;;9.90;4.88;;;;;;;;;;7423449;19;19941;-82
2024/02/28 11:43:38;;;;;;;9.95;4.60;;;;;;;;;;7424987;19;19922;-82
2024/02/28 11:46:24;;;;;;;8.00;4.88;;;;;;;;;;7421956;19;19953;-82
2024/02/28 11:49:08;;;;;;;9.77;4.80;;;;;;;;;;7423075;19;19923;-82
2024/02/28 11:51:57;;;;;;;12.15;4.72;;;;;;;;;;7422094;19;20369;-82
2024/02/28 11:54:41;;;;;;;9.60;4.95;;;;;;;;;;7423192;19;19914;-82
2024/02/28 11:57:29;;;;;;;10.00;4.75;;;;;;;;;;7421360;19;20583;-82
2024/02/28 12:00:14;;;;;;;9.70;4.53;;;;;;;;;;7420622;19;19915;-82
2024/02/28 12:03:07;;;;;;;7.43;4.30;;;;;;;;;;7418949;19;19926;-82
2024/02/28 12:05:58;;;;;;;10.00;4.00;;;;;;;;;;7424669;19;19919;-82
2024/02/28 12:08:51;;;;;;;9.68;4.53;;;;;;;;;;7424502;19;19935;-82
2024/02/28 12:11:38;;;;;;;9.25;4.68;;;;;;;;;;7421191;19;19914;-82
2024/02/28 12:14:24;;;;;;;9.50;4.05;;;;;;;;;;7421458;19;19915;-82
2024/02/28 12:17:11;;;;;;;7.55;4.38;;;;;;;;;;7420548;19;20273;-83
2024/02/28 12:19:56;;;;;;;8.25;4.35;;;;;;;;;;7425094;19;19917;-83
2024/02/28 12:22:42;;;;;;;8.88;4.35;;;;;;;;;;7421412;19;19914;-83
2024/02/28 12:25:32;;;;;;;11.15;4.50;;;;;;;;;;7421883;19;19919;-82
2024/02/28 12:28:18;;;;;;;8.93;4.38;;;;;;;;;;7417538;19;19927;-82
2024/02/28 12:31:02;;;;;;;7.47;4.38;;;;;;;;;;7420962;19;19978;-82
2024/02/28 12:33:46;;;;;;;7.90;4.40;;;;;;;;;;7420533;19;19914;-82
2024/02/28 12:36:34;;;;;;;8.60;4.75;;;;;;;;;;7420776;19;19923;-82
2024/02/28 12:39:20;;;;;;;7.78;5.07;;;;;;;;;;7421609;19;20234;-82
2024/02/28 12:42:07;;;;;;;9.73;4.28;;;;;;;;;;7416605;19;19936;-82
2024/02/28 12:44:53;;;;;;;11.35;4.20;;;;;;;;;;7421029;19;19925;-82
2024/02/28 12:47:41;;;;;;;10.13;4.68;;;;;;;;;;7418124;19;19918;-82
2024/02/28 12:50:26;;;;;;;9.10;4.10;;;;;;;;;;7418453;19;20340;-82
2024/02/28 12:53:12;;;;;;;10.00;4.63;;;;;;;;;;7421135;19;19932;-82
2024/02/28 12:55:59;;;;;;;7.45;4.38;;;;;;;;;;7418891;19;19922;-82
2024/02/28 12:58:46;;;;;;;9.90;5.32;;;;;;;;;;7418776;19;19910;-82
2024/02/28 13:01:31;;;;;;;8.85;4.90;;;;;;;;;;7415186;19;19966;-82
2024/02/28 13:04:15;;;;;;;7.93;4.63;;;;;;;;;;7419116;19;19922;-82
2024/02/28 13:07:06;;;;;;;10.75;4.65;;;;;;;;;;7417556;19;19919;-82
2024/02/28 13:09:55;;;;;;;8.50;4.20;;;;;;;;;;7413923;19;20353;-82
2024/02/28 13:12:41;;;;;;;13.48;5.18;;;;;;;;;;7411348;19;19923;-82
2024/02/28 13:15:28;;;;;;;7.30;4.63;;;;;;;;;;7418620;19;19921;-82
2024/02/28 13:18:13;;;;;;;9.55;4.75;;;;;;;;;;7413792;19;19911;-83
2024/02/28 13:20:57;;;;;;;11.20;4.13;;;;;;;;;;7410395;19;19924;-82
2024/02/28 13:23:43;;;;;;;10.00;5.38;;;;;;;;;;7419100;19;19922;-82
2024/02/28 13:26:32;;;;;;;8.50;4.72;;;;;;;;;;7418739;19;20262;-82
2024/02/28 13:29:17;;;;;;;9.85;4.30;;;;;;;;;;7421253;19;19931;-82
2024/02/28 13:32:07;;;;;;;8.48;4.45;;;;;;;;;;7417375;19;19918;-82
2024/02/28 13:34:54;;;;;;;7.65;4.05;;;;;;;;;;7416723;19;19911;-82
2024/02/28 13:37:40;;;;;;;6.70;3.78;;;;;;;;;;7417620;19;19926;-83
2024/02/28 13:40:27;;;;;;;7.40;3.80;;;;;;;;;;7419519;19;19919;-83
2024/02/28 13:43:11;;;;;;;6.60;4.20;;;;;;;;;;7417421;19;19919;-83
2024/02/28 13:46:00;;;;;;;7.50;3.58;;;;;;;;;;7418422;19;19919;-81
2024/02/28 13:48:47;;;;;;;7.93;4.00;;;;;;;;;;7420690;19;19907;-81
2024/02/28 13:51:34;;;;;;;6.90;3.88;;;;;;;;;;7410855;19;19929;-81
2024/02/28 13:54:18;;;;;;;7.85;3.85;;;;;;;;;;7411999;19;19966;-81
2024/02/28 13:57:07;;;;;;;8.57;4.53;;;;;;;;;;7415291;19;19911;-81
2024/02/28 13:59:54;;;;;;;10.63;4.47;;;;;;;;;;7415007;19;19922;-81
2024/02/28 14:02:41;;;;;;;8.52;4.30;;;;;;;;;;7415501;19;19922;-81
2024/02/28 14:05:37;;;;;;;11.30;5.90;;;;;;;;;;7416786;19;19936;-81
2024/02/28 14:08:27;;;;;;;12.30;7.13;;;;;;;;;;7409432;19;19922;-81
2024/02/28 14:11:15;;;;;;;13.95;7.05;;;;;;;;;;7410893;19;19919;-81
2024/02/28 14:14:02;;;;;;;17.02;7.25;;;;;;;;;;7416067;19;19907;-81
2024/02/28 14:16:48;;;;;;;13.65;6.70;;;;;;;;;;7412164;19;19925;-81
2024/02/28 14:19:40;;;;;;;13.88;6.95;;;;;;;;;;7417132;19;19998;-81
2024/02/28 14:22:35;;;;;;;14.57;6.70;;;;;;;;;;7412447;19;19915;-81
2024/02/28 14:25:20;;;;;;;11.52;6.45;;;;;;;;;;7413470;19;20344;-81
2024/02/28 14:28:08;;;;;;;11.68;6.47;;;;;;;;;;7412221;19;19928;-81
2024/02/28 14:30:58;;;;;;;12.68;6.40;;;;;;;;;;7401963;19;20293;-81
2024/02/28 14:33:48;;;;;;;12.75;6.53;;;;;;;;;;7396243;19;19971;-81
2024/02/28 14:36:41;;;;;;;14.32;7.20;;;;;;;;;;7399104;19;19970;-81
2024/02/28 14:39:52;;;;;;;15.63;6.70;;;;;;;;;;7406714;19;19918;-81
2024/02/28 14:42:51;;;;;;;13.35;6.47;;;;;;;;;;7412694;19;20333;-81
2024/02/28 14:45:38;;;;;;;10.68;5.55;;;;;;;;;;7413387;19;19911;-81
2024/02/28 14:48:32;;;;;;;12.80;6.47;;;;;;;;;;7413094;19;19926;-81
2024/02/28 14:51:21;;;;;;;11.32;5.72;;;;;;;;;;7409547;19;19954;-81
2024/02/28 14:54:06;;;;;;;11.80;6.10;;;;;;;;;;7411547;19;19919;-81
2024/02/28 14:56:53;;;;;;;11.75;6.15;;;;;;;;;;7413056;19;19919;-81
2024/02/28 14:59:37;;;;;;;10.98;5.70;;;;;;;;;;7414195;19;19978;-81
2024/02/28 15:02:26;;;;;;;11.68;5.63;;;;;;;;;;7408267;19;19948;-81
2024/02/28 15:05:11;;;;;;;11.93;5.53;;;;;;;;;;7412679;19;19955;-81
2024/02/28 15:07:55;;;;;;;13.10;6.05;;;;;;;;;;7409500;19;20290;-80
2024/02/28 15:10:42;;;;;;;12.50;5.82;;;;;;;;;;7416017;19;19919;-80
2024/02/28 15:13:32;;;;;;;13.98;6.15;;;;;;;;;;7413790;19;19931;-81
2024/02/28 15:16:19;;;;;;;13.73;7.40;;;;;;;;;;7413265;19;19926;-81
2024/02/28 15:19:08;;;;;;;12.80;6.50;;;;;;;;;;7415935;19;19919;-81
2024/02/28 15:21:52;;;;;;;14.75;6.80;;;;;;;;;;7411636;19;19934;-82
2024/02/28 15:24:41;;;;;;;12.65;6.38;;;;;;;;;;7415778;19;20234;-81
2024/02/28 15:27:29;;;;;;;13.73;6.43;;;;;;;;;;7410309;19;19927;-81
2024/02/28 15:30:18;;;;;;;10.57;5.38;;;;;;;;;;7410743;19;19911;-81
2024/02/28 15:33:06;;;;;;;9.68;5.20;;;;;;;;;;7412794;19;19918;-81
2024/02/28 15:35:52;;;;;;;12.90;6.32;;;;;;;;;;7414132;19;19941;-80
2024/02/28 15:38:37;;;;;;;14.45;6.88;;;;;;;;;;7420925;19;19945;-81
2024/02/28 15:41:22;;;;;;;10.93;6.55;;;;;;;;;;7419030;19;19926;-81
2024/02/28 15:44:09;;;;;;;14.68;6.88;;;;;;;;;;7420365;19;20259;-81
2024/02/28 15:46:59;;;;;;;10.70;6.35;;;;;;;;;;7414238;19;19974;-78
2024/02/28 15:49:45;;;;;;;13.15;6.50;;;;;;;;;;7408163;19;19970;-78
2024/02/28 15:52:32;;;;;;;15.23;7.15;;;;;;;;;;7407107;19;20336;-77
2024/02/28 15:55:20;;;;;;;13.18;7.03;;;;;;;;;;7404344;19;20424;-77
2024/02/28 15:58:07;;;;;;;13.55;6.85;;;;;;;;;;7407706;19;19935;-77
2024/02/28 16:00:53;;;;;;;14.15;6.57;;;;;;;;;;7410482;19;19917;-77
2024/02/28 16:03:43;;;;;;;14.30;6.28;;;;;;;;;;7407177;19;19932;-77
2024/02/28 16:06:27;;;;;;;14.20;6.60;;;;;;;;;;7402741;19;20370;-78
2024/02/28 16:09:14;;;;;;;16.67;7.25;;;;;;;;;;7406162;19;19934;-78
2024/02/28 16:12:02;;;;;;;13.32;6.15;;;;;;;;;;7405589;19;19926;-78
2024/02/28 16:14:46;;;;;;;13.65;6.35;;;;;;;;;;7406056;19;19921;-78
2024/02/28 16:17:35;;;;;;;13.02;6.80;;;;;;;;;;7406746;19;20351;-78
2024/02/28 16:20:24;;;;;;;13.80;6.72;;;;;;;;;;7407469;19;19923;-78
2024/02/28 16:23:08;;;;;;;14.30;6.80;;;;;;;;;;7402202;19;20439;-77
2024/02/28 16:25:57;;;;;;;12.93;7.07;;;;;;;;;;7400506;19;20387;-77
2024/02/28 16:28:44;;;;;;;15.52;7.38;;;;;;;;;;7404394;19;19936;-77
2024/02/28 16:31:28;;;;;;;14.57;6.78;;;;;;;;;;7405858;19;20264;-77
2024/02/28 16:34:15;;;;;;;17.35;7.03;;;;;;;;;;7400748;19;19927;-77
2024/02/28 16:37:04;;;;;;;18.55;7.85;;;;;;;;;;7403343;19;19926;-78